Terminal Aerodrome Forecast
Issued by NWS Topeka, KS

Home | Current Version | Previous Version | Graphics & Text | Print | Product List | Glossary Off
Versions: 1 2 3 4 5 6 7 8 9 10 11 12 13 14 15 16 17 18 19 20 21 22 23

000
FTUS43 KTOP 070857 AAB
TAFTOP
TAF AMD
KTOP 070857Z 0709/0806 02005KT 1 1/2SM RA BKN005 OVC024
     FM071100 02011KT 6SM HZ SCT020 BKN050
     FM071500 02010KT P6SM SCT100=

USA.gov is the U.S. government's official web portal to all federal, state and local government web resources and services.